Terminal Aerodrome Forecast
Issued by NWS

Home | Current Version | Previous Version | Text Only | Print | Product List | Glossary On
Versions: 1 2 3 4 5 6 7 8 9 10 11 12 13 14 15
000
FTUS43 KSGF 031720
TAFBBG
TAF
KBBG 031720Z 0318/0418 15006KT P6SM SCT060
     FM040100 VRB03KT P6SM SKC
     FM041600 16006KT P6SM SCT250=

USA.gov is the U.S. government's official web portal to all federal, state and local government web resources and services.